sensor_id;sensor_type;location;lat;lon;timestamp;pressure;altitude;pressure_sealevel;temperature;humidity
59829;BME280;45708;51.848;107.620;2023-03-23T00:02:31;95874.91;;;-9.83;44.83
59829;BME280;45708;51.848;107.620;2023-03-23T00:07:32;95753.88;;;-10.48;44.40
59829;BME280;45708;51.848;107.620;2023-03-23T00:12:33;95627.47;;;-11.07;45.69
59829;BME280;45708;51.848;107.620;2023-03-23T00:17:34;95679.38;;;-10.56;44.97
59829;BME280;45708;51.848;107.620;2023-03-23T00:22:35;95828.84;;;-9.48;44.42
59829;BME280;45708;51.848;107.620;2023-03-23T00:27:36;95743.09;;;-10.04;44.90
59829;BME280;45708;51.848;107.620;2023-03-23T00:32:37;95699.91;;;-10.08;43.69
59829;BME280;45708;51.848;107.620;2023-03-23T00:37:38;95875.47;;;-8.78;43.28
59829;BME280;45708;51.848;107.620;2023-03-23T00:42:39;95911.31;;;-8.63;43.75
59829;BME280;45708;51.848;107.620;2023-03-23T00:47:40;95894.97;;;-8.60;43.62
59829;BME280;45708;51.848;107.620;2023-03-23T00:52:41;95897.09;;;-8.22;43.15
59829;BME280;45708;51.848;107.620;2023-03-23T00:57:42;95909.72;;;-8.04;43.57
59829;BME280;45708;51.848;107.620;2023-03-23T01:02:43;95884.97;;;-8.19;42.94
59829;BME280;45708;51.848;107.620;2023-03-23T01:07:45;95915.22;;;-8.10;42.74
59829;BME280;45708;51.848;107.620;2023-03-23T01:12:46;95806.16;;;-8.75;42.20
59829;BME280;45708;51.848;107.620;2023-03-23T01:17:47;95859.81;;;-8.42;42.04
59829;BME280;45708;51.848;107.620;2023-03-23T01:22:48;95873.69;;;-8.01;41.89
59829;BME280;45708;51.848;107.620;2023-03-23T01:27:49;95805.13;;;-8.27;41.41
59829;BME280;45708;51.848;107.620;2023-03-23T01:32:50;95918.69;;;-7.37;40.21
59829;BME280;45708;51.848;107.620;2023-03-23T01:37:51;95951.16;;;-7.21;39.17
59829;BME280;45708;51.848;107.620;2023-03-23T01:42:52;95907.97;;;-7.29;39.62
59829;BME280;45708;51.848;107.620;2023-03-23T01:47:58;95926.03;;;-6.73;40.14
59829;BME280;45708;51.848;107.620;2023-03-23T01:53:01;95863.94;;;-6.80;40.00
59829;BME280;45708;51.848;107.620;2023-03-23T01:58:02;95884.94;;;-6.73;39.70
59829;BME280;45708;51.848;107.620;2023-03-23T02:03:03;95881.56;;;-6.88;38.99
59829;BME280;45708;51.848;107.620;2023-03-23T02:08:06;95864.38;;;-6.73;38.79
59829;BME280;45708;51.848;107.620;2023-03-23T02:13:09;95966.75;;;-5.85;38.01
59829;BME280;45708;51.848;107.620;2023-03-23T02:18:31;95969.53;;;-5.88;38.59
59829;BME280;45708;51.848;107.620;2023-03-23T02:34:29;95971.66;;;-5.68;36.52
59829;BME280;45708;51.848;107.620;2023-03-23T02:39:42;95932.47;;;-6.25;37.49
59829;BME280;45708;51.848;107.620;2023-03-23T02:44:45;95830.31;;;-6.63;37.05
59829;BME280;45708;51.848;107.620;2023-03-23T02:49:50;95978.97;;;-5.62;37.29
59829;BME280;45708;51.848;107.620;2023-03-23T02:54:53;95951.09;;;-5.82;36.31
59829;BME280;45708;51.848;107.620;2023-03-23T02:59:55;95984.41;;;-5.39;36.54
59829;BME280;45708;51.848;107.620;2023-03-23T03:05:04;95988.66;;;-4.87;35.98
59829;BME280;45708;51.848;107.620;2023-03-23T03:10:31;95988.13;;;-4.42;35.74
59829;BME280;45708;51.848;107.620;2023-03-23T03:15:44;95992.78;;;-3.97;35.53
59829;BME280;45708;51.848;107.620;2023-03-23T03:20:52;95877.03;;;-4.75;35.01
59829;BME280;45708;51.848;107.620;2023-03-23T03:25:55;95945.09;;;-4.41;35.19
59829;BME280;45708;51.848;107.620;2023-03-23T03:31:00;95975.41;;;-4.19;35.04
59829;BME280;45708;51.848;107.620;2023-03-23T03:36:04;95984.13;;;-4.09;34.57
59829;BME280;45708;51.848;107.620;2023-03-23T03:41:08;95797.88;;;-5.61;34.49
59829;BME280;45708;51.848;107.620;2023-03-23T03:46:09;95735.53;;;-5.90;34.87
59829;BME280;45708;51.848;107.620;2023-03-23T03:51:10;95962.84;;;-4.37;34.96
59829;BME280;45708;51.848;107.620;2023-03-23T03:56:11;95976.56;;;-4.36;34.65
59829;BME280;45708;51.848;107.620;2023-03-23T04:01:12;95929.19;;;-5.10;34.55
59829;BME280;45708;51.848;107.620;2023-03-23T04:06:12;95983.41;;;-5.11;34.96
59829;BME280;45708;51.848;107.620;2023-03-23T04:11:14;95972.16;;;-5.10;34.28
59829;BME280;45708;51.848;107.620;2023-03-23T04:16:15;95922.81;;;-5.17;35.12
59829;BME280;45708;51.848;107.620;2023-03-23T04:21:16;95928.34;;;-4.72;33.84
59829;BME280;45708;51.848;107.620;2023-03-23T04:26:17;95973.66;;;-4.32;34.08
59829;BME280;45708;51.848;107.620;2023-03-23T04:31:18;95979.25;;;-4.38;34.27
59829;BME280;45708;51.848;107.620;2023-03-23T04:36:19;95882.53;;;-5.18;34.37
59829;BME280;45708;51.848;107.620;2023-03-23T04:41:22;95964.06;;;-4.30;34.03
59829;BME280;45708;51.848;107.620;2023-03-23T04:46:26;95823.69;;;-4.99;34.32
59829;BME280;45708;51.848;107.620;2023-03-23T04:51:28;95968.44;;;-4.06;33.62
59829;BME280;45708;51.848;107.620;2023-03-23T04:56:30;95951.84;;;-4.15;34.10
59829;BME280;45708;51.848;107.620;2023-03-23T05:01:31;95837.44;;;-4.74;33.35
59829;BME280;45708;51.848;107.620;2023-03-23T05:06:32;95896.97;;;-4.17;32.99
59829;BME280;45708;51.848;107.620;2023-03-23T05:11:32;95947.75;;;-3.93;32.73
59829;BME280;45708;51.848;107.620;2023-03-23T05:16:33;95827.84;;;-4.72;33.08
59829;BME280;45708;51.848;107.620;2023-03-23T05:21:35;95856.31;;;-4.50;32.66
59829;BME280;45708;51.848;107.620;2023-03-23T05:26:36;95945.84;;;-3.79;32.32
59829;BME280;45708;51.848;107.620;2023-03-23T05:31:37;95918.25;;;-4.02;32.84
59829;BME280;45708;51.848;107.620;2023-03-23T05:36:38;95892.44;;;-4.02;31.78
59829;BME280;45708;51.848;107.620;2023-03-23T05:41:39;95911.63;;;-3.93;32.25
59829;BME280;45708;51.848;107.620;2023-03-23T05:46:41;95897.91;;;-3.94;32.30
59829;BME280;45708;51.848;107.620;2023-03-23T05:51:46;95833.47;;;-4.31;32.25
59829;BME280;45708;51.848;107.620;2023-03-23T05:56:48;95878.78;;;-3.91;32.55
59829;BME280;45708;51.848;107.620;2023-03-23T06:01:52;95936.25;;;-3.65;32.29
59829;BME280;45708;51.848;107.620;2023-03-23T06:06:54;95697.00;;;-5.16;32.67
59829;BME280;45708;51.848;107.620;2023-03-23T06:11:55;95722.19;;;-5.09;32.50
59829;BME280;45708;51.848;107.620;2023-03-23T06:16:56;95813.25;;;-4.61;31.82
59829;BME280;45708;51.848;107.620;2023-03-23T06:21:57;95909.47;;;-4.23;31.99
59829;BME280;45708;51.848;107.620;2023-03-23T06:26:58;95911.19;;;-4.11;32.44
59829;BME280;45708;51.848;107.620;2023-03-23T06:32:02;95792.25;;;-4.67;32.01
59829;BME280;45708;51.848;107.620;2023-03-23T06:37:05;95698.22;;;-5.22;32.44
59829;BME280;45708;51.848;107.620;2023-03-23T06:42:09;95847.34;;;-4.20;32.90
59829;BME280;45708;51.848;107.620;2023-03-23T06:47:10;95879.44;;;-4.01;32.41
59829;BME280;45708;51.848;107.620;2023-03-23T06:52:11;95889.25;;;-3.82;32.35
59829;BME280;45708;51.848;107.620;2023-03-23T06:57:12;95905.88;;;-3.62;32.60
59829;BME280;45708;51.848;107.620;2023-03-23T07:02:15;95870.13;;;-4.14;32.48
59829;BME280;45708;51.848;107.620;2023-03-23T07:07:16;95861.00;;;-4.07;33.04
59829;BME280;45708;51.848;107.620;2023-03-23T07:12:18;95875.84;;;-3.87;32.29
59829;BME280;45708;51.848;107.620;2023-03-23T07:17:19;95702.25;;;-4.94;32.09
59829;BME280;45708;51.848;107.620;2023-03-23T07:22:22;95881.84;;;-3.86;32.77
59829;BME280;45708;51.848;107.620;2023-03-23T07:27:23;95887.81;;;-3.86;32.45
59829;BME280;45708;51.848;107.620;2023-03-23T07:32:28;95849.00;;;-4.19;32.49
59829;BME280;45708;51.848;107.620;2023-03-23T07:37:29;95889.94;;;-3.91;32.36
59829;BME280;45708;51.848;107.620;2023-03-23T07:42:31;95885.63;;;-4.03;32.63
59829;BME280;45708;51.848;107.620;2023-03-23T07:47:31;95882.78;;;-4.11;32.57
59829;BME280;45708;51.848;107.620;2023-03-23T07:52:33;95860.91;;;-4.30;31.95
59829;BME280;45708;51.848;107.620;2023-03-23T07:57:35;95878.50;;;-4.23;32.45
59829;BME280;45708;51.848;107.620;2023-03-23T08:02:36;95719.72;;;-5.47;32.82
59829;BME280;45708;51.848;107.620;2023-03-23T08:07:37;95847.53;;;-4.71;32.14
59829;BME280;45708;51.848;107.620;2023-03-23T08:12:39;95784.03;;;-5.22;31.69
59829;BME280;45708;51.848;107.620;2023-03-23T08:17:41;95878.44;;;-4.58;32.66
59829;BME280;45708;51.848;107.620;2023-03-23T08:22:44;95740.75;;;-5.66;32.53
59829;BME280;45708;51.848;107.620;2023-03-23T08:27:46;95776.56;;;-5.37;32.40
59829;BME280;45708;51.848;107.620;2023-03-23T08:32:48;95883.72;;;-4.73;32.08
59829;BME280;45708;51.848;107.620;2023-03-23T08:37:50;95720.44;;;-5.94;32.41
59829;BME280;45708;51.848;107.620;2023-03-23T08:42:52;95855.66;;;-5.14;31.91
59829;BME280;45708;51.848;107.620;2023-03-23T08:47:53;95778.03;;;-5.59;32.67
59829;BME280;45708;51.848;107.620;2023-03-23T08:52:54;95863.44;;;-5.03;33.33
59829;BME280;45708;51.848;107.620;2023-03-23T08:57:55;95873.13;;;-4.94;33.07
59829;BME280;45708;51.848;107.620;2023-03-23T09:02:56;95884.06;;;-5.03;32.63
59829;BME280;45708;51.848;107.620;2023-03-23T09:07:58;95882.31;;;-4.90;33.08
59829;BME280;45708;51.848;107.620;2023-03-23T09:12:59;95874.38;;;-5.12;32.88
59829;BME280;45708;51.848;107.620;2023-03-23T09:18:00;95835.84;;;-5.64;32.98
59829;BME280;45708;51.848;107.620;2023-03-23T09:23:02;95727.88;;;-6.42;34.21
59829;BME280;45708;51.848;107.620;2023-03-23T09:28:04;95876.84;;;-5.48;33.37
59829;BME280;45708;51.848;107.620;2023-03-23T09:33:05;95723.59;;;-6.68;33.41
59829;BME280;45708;51.848;107.620;2023-03-23T09:38:08;95845.34;;;-5.90;33.60
59829;BME280;45708;51.848;107.620;2023-03-23T09:43:35;95815.88;;;-6.11;35.02
59829;BME280;45708;51.848;107.620;2023-03-23T09:49:03;95812.94;;;-6.32;34.60
59829;BME280;45708;51.848;107.620;2023-03-23T09:59:36;95881.47;;;-5.92;35.20
59829;BME280;45708;51.848;107.620;2023-03-23T10:09:49;95624.59;;;-7.80;34.72
59829;BME280;45708;51.848;107.620;2023-03-23T10:15:14;95877.13;;;-6.31;34.94
59829;BME280;45708;51.848;107.620;2023-03-23T10:25:57;95892.25;;;-6.53;36.26
59829;BME280;45708;51.848;107.620;2023-03-23T10:31:01;95893.19;;;-6.68;35.86
59829;BME280;45708;51.848;107.620;2023-03-23T10:36:10;95892.75;;;-6.75;36.12
59829;BME280;45708;51.848;107.620;2023-03-23T10:41:17;95869.19;;;-6.96;36.75
59829;BME280;45708;51.848;107.620;2023-03-23T10:51:40;95896.72;;;-6.98;36.92
59829;BME280;45708;51.848;107.620;2023-03-23T10:56:43;95742.34;;;-8.06;36.40
59829;BME280;45708;51.848;107.620;2023-03-23T11:01:45;95778.28;;;-7.91;37.28
59829;BME280;45708;51.848;107.620;2023-03-23T11:06:59;95897.91;;;-7.32;36.77
59829;BME280;45708;51.848;107.620;2023-03-23T11:12:00;95896.78;;;-7.42;37.43
59829;BME280;45708;51.848;107.620;2023-03-23T11:17:04;95863.47;;;-7.72;37.29
59829;BME280;45708;51.848;107.620;2023-03-23T11:22:14;95899.44;;;-7.44;38.10
59829;BME280;45708;51.848;107.620;2023-03-23T11:27:18;95658.91;;;-9.12;38.16
59829;BME280;45708;51.848;107.620;2023-03-23T11:32:24;95811.19;;;-8.14;37.85
59829;BME280;45708;51.848;107.620;2023-03-23T11:37:41;95900.69;;;-7.65;38.19
59829;BME280;45708;51.848;107.620;2023-03-23T11:48:19;95900.66;;;-7.79;38.60
59829;BME280;45708;51.848;107.620;2023-03-23T11:58:42;95881.50;;;-8.18;38.13
59829;BME280;45708;51.848;107.620;2023-03-23T12:09:01;95907.00;;;-8.01;38.86
59829;BME280;45708;51.848;107.620;2023-03-23T12:25:08;95920.91;;;-8.50;39.68
59829;BME280;45708;51.848;107.620;2023-03-23T12:40:39;95916.28;;;-8.75;41.23
59829;BME280;45708;51.848;107.620;2023-03-23T12:46:06;95900.03;;;-9.07;40.42
59829;BME280;45708;51.848;107.620;2023-03-23T12:51:34;95785.56;;;-9.68;40.74
59829;BME280;45708;51.848;107.620;2023-03-23T12:56:42;95940.16;;;-8.75;40.08
59829;BME280;45708;51.848;107.620;2023-03-23T13:01:48;95781.78;;;-9.61;41.48
59829;BME280;45708;51.848;107.620;2023-03-23T13:06:52;95808.34;;;-9.64;42.13
59829;BME280;45708;51.848;107.620;2023-03-23T13:11:54;95780.41;;;-9.84;41.68
59829;BME280;45708;51.848;107.620;2023-03-23T13:17:26;95921.78;;;-8.83;42.17
59829;BME280;45708;51.848;107.620;2023-03-23T13:22:42;95918.94;;;-8.77;41.07
59829;BME280;45708;51.848;107.620;2023-03-23T13:27:44;95870.25;;;-9.08;41.45
59829;BME280;45708;51.848;107.620;2023-03-23T13:33:05;95917.28;;;-8.78;41.40
59829;BME280;45708;51.848;107.620;2023-03-23T13:38:43;95911.78;;;-8.87;41.38
59829;BME280;45708;51.848;107.620;2023-03-23T13:43:45;95902.44;;;-9.04;41.46
59829;BME280;45708;51.848;107.620;2023-03-23T13:49:04;95864.09;;;-9.37;42.52
59829;BME280;45708;51.848;107.620;2023-03-23T13:54:40;95857.63;;;-9.44;43.29
59829;BME280;45708;51.848;107.620;2023-03-23T13:59:49;95783.97;;;-9.87;42.52
59829;BME280;45708;51.848;107.620;2023-03-23T14:04:56;95617.69;;;-10.81;42.18
59829;BME280;45708;51.848;107.620;2023-03-23T14:10:04;95812.94;;;-9.70;42.24
59829;BME280;45708;51.848;107.620;2023-03-23T14:15:11;95768.03;;;-9.92;42.62
59829;BME280;45708;51.848;107.620;2023-03-23T14:20:30;95895.47;;;-9.34;42.67
59829;BME280;45708;51.848;107.620;2023-03-23T14:25:31;95891.13;;;-9.49;43.25
59829;BME280;45708;51.848;107.620;2023-03-23T14:30:36;95865.28;;;-9.60;42.61
59829;BME280;45708;51.848;107.620;2023-03-23T14:35:40;95887.66;;;-9.48;43.09
59829;BME280;45708;51.848;107.620;2023-03-23T14:40:42;95879.09;;;-9.64;43.29
59829;BME280;45708;51.848;107.620;2023-03-23T14:45:51;95888.88;;;-9.55;43.38
59829;BME280;45708;51.848;107.620;2023-03-23T14:50:52;95885.75;;;-9.60;44.20
59829;BME280;45708;51.848;107.620;2023-03-23T14:56:02;95713.16;;;-10.85;42.83
59829;BME280;45708;51.848;107.620;2023-03-23T15:01:07;95746.66;;;-10.74;44.70
59829;BME280;45708;51.848;107.620;2023-03-23T15:06:15;95895.31;;;-9.98;44.38
59829;BME280;45708;51.848;107.620;2023-03-23T15:16:24;95885.00;;;-10.14;43.95
59829;BME280;45708;51.848;107.620;2023-03-23T15:21:33;95882.16;;;-10.25;44.64
59829;BME280;45708;51.848;107.620;2023-03-23T15:26:41;95813.03;;;-10.74;44.95
59829;BME280;45708;51.848;107.620;2023-03-23T15:31:47;95803.38;;;-10.86;45.29
59829;BME280;45708;51.848;107.620;2023-03-23T15:37:03;95816.63;;;-10.78;44.72
59829;BME280;45708;51.848;107.620;2023-03-23T15:42:05;95753.13;;;-11.20;44.75
59829;BME280;45708;51.848;107.620;2023-03-23T15:47:17;95876.88;;;-10.57;45.40
59829;BME280;45708;51.848;107.620;2023-03-23T15:52:18;95829.06;;;-10.89;45.54
59829;BME280;45708;51.848;107.620;2023-03-23T15:57:18;95871.44;;;-10.68;44.50
59829;BME280;45708;51.848;107.620;2023-03-23T16:02:25;95718.19;;;-11.73;45.63
59829;BME280;45708;51.848;107.620;2023-03-23T16:07:29;95859.25;;;-10.80;45.91
59829;BME280;45708;51.848;107.620;2023-03-23T16:12:29;95760.91;;;-11.42;44.70
59829;BME280;45708;51.848;107.620;2023-03-23T16:17:30;95758.13;;;-11.55;46.08
59829;BME280;45708;51.848;107.620;2023-03-23T16:22:31;95870.84;;;-11.11;46.20
59829;BME280;45708;51.848;107.620;2023-03-23T16:27:32;95886.44;;;-11.17;46.06
59829;BME280;45708;51.848;107.620;2023-03-23T16:32:33;95843.81;;;-11.52;46.43
59829;BME280;45708;51.848;107.620;2023-03-23T16:37:34;95730.34;;;-12.36;47.13
59829;BME280;45708;51.848;107.620;2023-03-23T16:42:35;95879.66;;;-11.55;46.83
59829;BME280;45708;51.848;107.620;2023-03-23T16:47:36;95849.28;;;-11.79;46.99
59829;BME280;45708;51.848;107.620;2023-03-23T16:52:40;95696.59;;;-12.80;47.12
59829;BME280;45708;51.848;107.620;2023-03-23T16:57:42;95773.47;;;-12.33;47.29
59829;BME280;45708;51.848;107.620;2023-03-23T17:02:43;95833.59;;;-11.90;46.26
59829;BME280;45708;51.848;107.620;2023-03-23T17:07:45;95775.97;;;-12.32;47.66
59829;BME280;45708;51.848;107.620;2023-03-23T17:12:47;95581.81;;;-13.32;47.39
59829;BME280;45708;51.848;107.620;2023-03-23T17:17:49;95747.53;;;-12.22;46.85
59829;BME280;45708;51.848;107.620;2023-03-23T17:22:49;95842.00;;;-11.69;47.33
59829;BME280;45708;51.848;107.620;2023-03-23T17:27:51;95843.53;;;-11.65;47.03
59829;BME280;45708;51.848;107.620;2023-03-23T17:32:52;95857.22;;;-11.68;47.63
59829;BME280;45708;51.848;107.620;2023-03-23T17:37:53;95835.31;;;-11.90;47.20
59829;BME280;45708;51.848;107.620;2023-03-23T17:42:54;95838.56;;;-11.87;47.79
59829;BME280;45708;51.848;107.620;2023-03-23T17:48:15;95858.00;;;-11.66;47.37
59829;BME280;45708;51.848;107.620;2023-03-23T17:53:15;95849.16;;;-11.96;47.11
59829;BME280;45708;51.848;107.620;2023-03-23T17:58:17;95849.84;;;-11.92;47.66
59829;BME280;45708;51.848;107.620;2023-03-23T18:03:18;95556.00;;;-13.64;47.62
59829;BME280;45708;51.848;107.620;2023-03-23T18:08:19;95797.84;;;-12.27;48.38
59829;BME280;45708;51.848;107.620;2023-03-23T18:13:22;95828.13;;;-12.21;48.39
59829;BME280;45708;51.848;107.620;2023-03-23T18:18:24;95728.75;;;-13.00;49.18
59829;BME280;45708;51.848;107.620;2023-03-23T18:23:26;95829.41;;;-12.52;49.02
59829;BME280;45708;51.848;107.620;2023-03-23T18:28:28;95856.84;;;-12.38;49.99
59829;BME280;45708;51.848;107.620;2023-03-23T18:33:29;95709.34;;;-13.23;49.33
59829;BME280;45708;51.848;107.620;2023-03-23T18:38:31;95851.81;;;-12.40;49.85
59829;BME280;45708;51.848;107.620;2023-03-23T18:43:32;95724.06;;;-13.31;50.42
59829;BME280;45708;51.848;107.620;2023-03-23T18:48:33;95845.88;;;-12.61;49.14
59829;BME280;45708;51.848;107.620;2023-03-23T18:53:34;95858.63;;;-12.62;49.31
59829;BME280;45708;51.848;107.620;2023-03-23T18:58:35;95841.97;;;-12.69;49.73
59829;BME280;45708;51.848;107.620;2023-03-23T19:03:37;95772.72;;;-13.18;49.31
59829;BME280;45708;51.848;107.620;2023-03-23T19:08:38;95796.44;;;-13.17;50.46
59829;BME280;45708;51.848;107.620;2023-03-23T19:13:39;95831.78;;;-13.33;55.05
59829;BME280;45708;51.848;107.620;2023-03-23T19:18:40;95862.09;;;-13.29;52.67
59829;BME280;45708;51.848;107.620;2023-03-23T19:23:41;95795.88;;;-13.47;52.03
59829;BME280;45708;51.848;107.620;2023-03-23T19:28:42;95614.78;;;-14.60;51.25
59829;BME280;45708;51.848;107.620;2023-03-23T19:33:43;95836.09;;;-13.35;51.23
59829;BME280;45708;51.848;107.620;2023-03-23T19:38:44;95682.34;;;-14.36;52.00
59829;BME280;45708;51.848;107.620;2023-03-23T19:43:45;95681.03;;;-14.46;51.72
59829;BME280;45708;51.848;107.620;2023-03-23T19:48:47;95632.13;;;-14.73;51.09
59829;BME280;45708;51.848;107.620;2023-03-23T19:53:49;95818.19;;;-13.56;51.63
59829;BME280;45708;51.848;107.620;2023-03-23T19:58:50;95485.81;;;-15.63;51.73
59829;BME280;45708;51.848;107.620;2023-03-23T20:03:51;95682.69;;;-14.45;50.67
59829;BME280;45708;51.848;107.620;2023-03-23T20:08:52;95769.06;;;-14.01;51.58
59829;BME280;45708;51.848;107.620;2023-03-23T20:13:53;95756.34;;;-14.25;52.18
59829;BME280;45708;51.848;107.620;2023-03-23T20:18:54;95802.41;;;-14.10;51.68
59829;BME280;45708;51.848;107.620;2023-03-23T20:23:57;95766.63;;;-14.28;51.92
59829;BME280;45708;51.848;107.620;2023-03-23T20:28:58;95639.00;;;-15.00;51.23
59829;BME280;45708;51.848;107.620;2023-03-23T20:34:03;95809.38;;;-13.92;52.57
59829;BME280;45708;51.848;107.620;2023-03-23T20:39:07;95803.00;;;-14.04;53.01
59829;BME280;45708;51.848;107.620;2023-03-23T20:44:10;95807.41;;;-14.09;52.09
59829;BME280;45708;51.848;107.620;2023-03-23T20:49:12;95783.88;;;-14.37;52.34
59829;BME280;45708;51.848;107.620;2023-03-23T20:54:13;95819.13;;;-14.30;53.81
59829;BME280;45708;51.848;107.620;2023-03-23T20:59:14;95808.69;;;-14.46;52.94
59829;BME280;45708;51.848;107.620;2023-03-23T21:04:19;95788.25;;;-14.66;52.77
59829;BME280;45708;51.848;107.620;2023-03-23T21:09:24;95784.41;;;-14.78;52.43
59829;BME280;45708;51.848;107.620;2023-03-23T21:14:25;95754.19;;;-15.10;53.07
59829;BME280;45708;51.848;107.620;2023-03-23T21:19:27;95802.94;;;-15.02;54.21
59829;BME280;45708;51.848;107.620;2023-03-23T21:24:30;95814.38;;;-15.45;57.87
59829;BME280;45708;51.848;107.620;2023-03-23T21:29:31;95651.34;;;-16.79;59.08
59829;BME280;45708;51.848;107.620;2023-03-23T21:34:35;95811.78;;;-15.99;59.66
59829;BME280;45708;51.848;107.620;2023-03-23T21:39:36;95530.53;;;-17.89;60.47
59829;BME280;45708;51.848;107.620;2023-03-23T21:44:38;95504.13;;;-18.08;60.50
59829;BME280;45708;51.848;107.620;2023-03-23T21:49:39;95447.88;;;-18.10;59.67
59829;BME280;45708;51.848;107.620;2023-03-23T21:54:41;95626.31;;;-16.88;60.13
59829;BME280;45708;51.848;107.620;2023-03-23T21:59:42;95462.03;;;-18.06;58.98
59829;BME280;45708;51.848;107.620;2023-03-23T22:04:43;95753.69;;;-16.04;59.48
59829;BME280;45708;51.848;107.620;2023-03-23T22:09:44;95812.22;;;-15.57;59.21
59829;BME280;45708;51.848;107.620;2023-03-23T22:14:44;95789.44;;;-15.57;59.21
59829;BME280;45708;51.848;107.620;2023-03-23T22:19:48;95781.44;;;-15.71;58.74
59829;BME280;45708;51.848;107.620;2023-03-23T22:24:50;95774.63;;;-15.69;58.87
59829;BME280;45708;51.848;107.620;2023-03-23T22:29:51;95786.38;;;-15.96;59.23
59829;BME280;45708;51.848;107.620;2023-03-23T22:34:52;95822.25;;;-15.82;59.31
59829;BME280;45708;51.848;107.620;2023-03-23T22:39:53;95818.44;;;-15.67;58.16
59829;BME280;45708;51.848;107.620;2023-03-23T22:44:53;95812.97;;;-15.81;59.04
59829;BME280;45708;51.848;107.620;2023-03-23T22:49:55;95783.00;;;-16.26;60.08
59829;BME280;45708;51.848;107.620;2023-03-23T22:54:56;95809.78;;;-16.19;60.71
59829;BME280;45708;51.848;107.620;2023-03-23T23:00:00;95701.50;;;-16.96;61.20
59829;BME280;45708;51.848;107.620;2023-03-23T23:05:02;95734.47;;;-16.39;59.76
59829;BME280;45708;51.848;107.620;2023-03-23T23:10:03;95819.63;;;-15.51;59.84
59829;BME280;45708;51.848;107.620;2023-03-23T23:15:05;95793.66;;;-15.57;59.37
59829;BME280;45708;51.848;107.620;2023-03-23T23:20:07;95828.78;;;-15.17;58.40
59829;BME280;45708;51.848;107.620;2023-03-23T23:25:08;95791.59;;;-14.90;58.00
59829;BME280;45708;51.848;107.620;2023-03-23T23:30:09;95801.75;;;-14.65;55.66
59829;BME280;45708;51.848;107.620;2023-03-23T23:35:11;95813.00;;;-14.99;56.69
59829;BME280;45708;51.848;107.620;2023-03-23T23:40:18;95607.34;;;-16.45;57.43
59829;BME280;45708;51.848;107.620;2023-03-23T23:45:20;95829.50;;;-14.36;57.13
59829;BME280;45708;51.848;107.620;2023-03-23T23:50:23;95539.63;;;-15.58;55.04
59829;BME280;45708;51.848;107.620;2023-03-23T23:55:25;95663.69;;;-14.11;53.91
